Jianyang, China
Current Conditions -  °F | °C
As of 8:00 PM on Monday 24 Nov 2014 (Local Time) from ZUUU Reporting Station
Haze Haze  
Wind Chill: 54°   Ceiling: Unl
Heat Index: 54°   Visibility: 2.8mi
Dew Point: 48°   Wind: 2mph
Humidity: 82%   Direction: NA
Pressure: 30.15"   Gusts: NA
Location:  30.57°N, 104.55°E
Report Text: ZUUU 241200Z VRB01MPS 4500 BR SCT050 12/09 Q1021 NOSIG
Loading
Personal Weather Stations






























Interactive Weather Map New forecast layout! Learn more

10-Day Weather Forecast

Advertisements
Track Severe Weather on mobile